Time;durP1;ratioP1;P1;durP2;ratioP2;P2;SDS_P1;SDS_P2;PMS_P1;PMS_P2;Temp;Humidity;BMP_temperature;BMP_pressure;BME280_temperature;BME280_humidity;BME280_pressure;Samples;Min_cycle;Max_cycle;Signal;HPM_P1;HPM_P2
2023/12/20 00:01:08;;;;;;;21.00;2.97;;;2.40;99.90;;;;;;5049986;28;20281;-87
2023/12/20 00:03:35;;;;;;;17.02;2.03;;;2.40;99.90;;;;;;5049578;28;20258;-85
2023/12/20 00:06:09;;;;;;;13.90;2.22;;;2.40;99.90;;;;;;5050225;28;20563;-86
2023/12/20 00:08:37;;;;;;;17.00;2.40;;;2.40;99.90;;;;;;5048975;28;20574;-86
2023/12/20 00:11:04;;;;;;;13.82;1.77;;;2.30;99.90;;;;;;5049158;28;20197;-86
2023/12/20 00:13:32;;;;;;;14.05;2.15;;;2.30;99.90;;;;;;5049116;28;20189;-86
2023/12/20 00:15:59;;;;;;;12.40;1.70;;;2.30;99.90;;;;;;5048632;28;20201;-86
2023/12/20 00:18:27;;;;;;;14.90;2.10;;;2.30;99.90;;;;;;5049500;28;20263;-87
2023/12/20 00:20:54;;;;;;;15.85;2.20;;;2.30;99.90;;;;;;5049629;28;20705;-85
2023/12/20 00:23:23;;;;;;;10.82;1.92;;;2.30;99.90;;;;;;5048864;28;20197;-87
2023/12/20 00:25:50;;;;;;;15.60;2.20;;;2.30;99.90;;;;;;5048595;28;20209;-88
2023/12/20 00:28:18;;;;;;;18.45;2.03;;;2.30;99.90;;;;;;5048782;28;20189;-87
2023/12/20 00:30:45;;;;;;;15.65;2.85;;;2.30;99.90;;;;;;5049627;28;20189;-86
2023/12/20 00:33:13;;;;;;;15.57;2.33;;;2.20;99.90;;;;;;5049010;28;20209;-86
2023/12/20 00:35:41;;;;;;;15.35;2.80;;;2.30;99.90;;;;;;5081830;28;20182;-87
2023/12/20 00:38:09;;;;;;;11.77;2.05;;;2.30;99.90;;;;;;5050390;28;20244;-85
2023/12/20 00:40:38;;;;;;;17.70;2.25;;;2.30;99.90;;;;;;5050612;28;20177;-87
2023/12/20 00:43:05;;;;;;;12.25;1.98;;;2.30;99.90;;;;;;5048707;28;20193;-86
2023/12/20 00:45:33;;;;;;;11.88;2.10;;;2.20;99.90;;;;;;5049626;28;20204;-88
2023/12/20 00:48:00;;;;;;;17.35;2.20;;;2.20;99.90;;;;;;5048527;28;20247;-85
2023/12/20 00:50:28;;;;;;;12.35;1.73;;;2.30;99.90;;;;;;5081696;28;20209;-86
2023/12/20 00:52:56;;;;;;;11.63;1.65;;;2.20;99.90;;;;;;5048605;28;20177;-86
2023/12/20 00:55:24;;;;;;;8.30;1.70;;;2.20;99.90;;;;;;5048892;28;20185;-85
2023/12/20 00:57:53;;;;;;;9.95;1.80;;;2.20;99.90;;;;;;5081519;28;20189;-87
2023/12/20 01:00:21;;;;;;;9.75;2.17;;;2.20;99.90;;;;;;5048365;28;20284;-86
2023/12/20 01:02:49;;;;;;;8.23;1.65;;;2.10;99.90;;;;;;5047970;28;20228;-87
2023/12/20 01:05:19;;;;;;;10.32;1.80;;;2.20;99.90;;;;;;5048583;28;20299;-87
2023/12/20 01:07:46;;;;;;;11.40;1.40;;;2.20;99.90;;;;;;5049445;28;20189;-86
2023/12/20 01:10:14;;;;;;;13.65;2.08;;;2.20;99.90;;;;;;5049013;28;20251;-87
2023/12/20 01:12:42;;;;;;;7.88;1.65;;;2.10;99.90;;;;;;5049145;28;20559;-87
2023/12/20 01:15:09;;;;;;;16.15;1.90;;;2.10;99.90;;;;;;5048619;28;20190;-87
2023/12/20 01:17:37;;;;;;;13.40;1.55;;;2.10;99.90;;;;;;5048628;28;20268;-87
2023/12/20 01:20:05;;;;;;;12.05;1.77;;;2.10;99.90;;;;;;5049405;28;20196;-86
2023/12/20 01:22:35;;;;;;;14.15;1.80;;;2.10;99.90;;;;;;5049370;28;20247;-85
2023/12/20 01:25:03;;;;;;;14.70;2.15;;;2.00;99.90;;;;;;5032131;28;20656;-87
2023/12/20 01:27:31;;;;;;;12.15;1.85;;;2.00;99.90;;;;;;5031995;28;20189;-86
2023/12/20 01:29:58;;;;;;;15.82;2.10;;;2.00;99.90;;;;;;5050423;28;20540;-85
2023/12/20 01:32:26;;;;;;;12.65;2.05;;;2.00;99.90;;;;;;5048746;28;20204;-87
2023/12/20 01:34:53;;;;;;;19.75;2.40;;;2.10;99.90;;;;;;5049428;28;20360;-87
2023/12/20 01:37:25;;;;;;;11.43;1.75;;;2.00;99.90;;;;;;5049048;28;20263;-86
2023/12/20 01:39:53;;;;;;;13.57;1.60;;;2.00;99.90;;;;;;5048884;28;20252;-85
2023/12/20 01:42:20;;;;;;;12.80;1.70;;;2.00;99.90;;;;;;5066419;28;20203;-85
2023/12/20 01:44:48;;;;;;;13.80;2.00;;;2.00;99.90;;;;;;5051940;28;20220;-87
2023/12/20 01:47:16;;;;;;;9.82;2.10;;;2.00;99.90;;;;;;5052486;28;20189;-87
2023/12/20 01:49:44;;;;;;;13.30;2.30;;;2.00;99.90;;;;;;5052152;28;20193;-87
2023/12/20 01:52:12;;;;;;;11.55;1.50;;;2.00;99.90;;;;;;5052859;28;20208;-86
2023/12/20 01:54:41;;;;;;;13.07;2.35;;;2.00;99.90;;;;;;5052960;28;20189;-86
2023/12/20 01:57:10;;;;;;;13.65;2.03;;;2.00;99.90;;;;;;5053175;28;20674;-85
2023/12/20 01:59:41;;;;;;;13.48;2.08;;;2.00;99.90;;;;;;5053300;28;20188;-87
2023/12/20 02:02:09;;;;;;;12.10;1.80;;;2.00;99.90;;;;;;5052072;28;20293;-86
2023/12/20 02:04:36;;;;;;;13.75;1.55;;;2.00;99.90;;;;;;5052558;28;20215;-88
2023/12/20 02:07:04;;;;;;;14.25;1.77;;;1.90;99.90;;;;;;5052556;28;20250;-86
2023/12/20 02:09:32;;;;;;;11.38;1.65;;;1.90;99.90;;;;;;5052618;28;20801;-86
2023/12/20 02:12:00;;;;;;;12.15;2.10;;;1.90;99.90;;;;;;5052736;28;20235;-86
2023/12/20 02:14:27;;;;;;;16.77;2.25;;;1.90;99.90;;;;;;5051482;28;20177;-87
2023/12/20 02:16:55;;;;;;;12.77;2.20;;;1.90;99.90;;;;;;5051209;28;20189;-86
2023/12/20 02:19:26;;;;;;;10.70;1.77;;;1.90;99.90;;;;;;5051459;28;20197;-87
2023/12/20 02:22:08;;;;;;;14.35;1.40;;;1.90;99.90;;;;;;5051639;28;20201;-87
2023/12/20 02:24:36;;;;;;;9.20;1.58;;;1.90;99.90;;;;;;5050944;28;20170;-87
2023/12/20 02:27:06;;;;;;;10.32;1.75;;;1.90;99.90;;;;;;5052505;28;20181;-87
2023/12/20 02:29:35;;;;;;;14.35;1.60;;;1.90;99.90;;;;;;5053183;28;20184;-86
2023/12/20 02:32:02;;;;;;;13.02;1.55;;;1.80;99.90;;;;;;5051829;28;20188;-85
2023/12/20 02:34:30;;;;;;;8.88;1.40;;;1.80;99.90;;;;;;5052462;28;20215;-86
2023/12/20 02:36:57;;;;;;;16.00;1.83;;;1.80;99.90;;;;;;5051917;28;20228;-86
2023/12/20 02:39:26;;;;;;;15.25;1.63;;;1.80;99.90;;;;;;5051699;28;20703;-86
2023/12/20 02:41:53;;;;;;;10.40;1.70;;;1.80;99.90;;;;;;5052086;28;20194;-86
2023/12/20 02:44:20;;;;;;;14.98;1.80;;;1.80;99.90;;;;;;5052370;28;20188;-86
2023/12/20 02:46:48;;;;;;;13.45;1.98;;;1.80;99.90;;;;;;5051430;28;20290;-88
2023/12/20 02:49:15;;;;;;;18.50;1.70;;;1.80;99.90;;;;;;5052955;28;20191;-87
2023/12/20 02:51:43;;;;;;;17.65;2.25;;;1.80;99.90;;;;;;5052923;28;20264;-86
2023/12/20 02:54:11;;;;;;;13.52;1.80;;;1.80;99.90;;;;;;5050864;28;20243;-86
2023/12/20 02:56:38;;;;;;;8.88;1.67;;;1.80;99.90;;;;;;5052471;28;20189;-86
2023/12/20 02:59:08;;;;;;;8.65;1.38;;;1.80;99.90;;;;;;5051752;28;20189;-87
2023/12/20 03:01:41;;;;;;;17.30;2.28;;;1.80;99.90;;;;;;5034053;28;20197;-84
2023/12/20 03:04:08;;;;;;;11.50;1.42;;;1.80;99.90;;;;;;5050120;28;20193;-86
2023/12/20 03:06:36;;;;;;;11.70;1.42;;;1.80;99.90;;;;;;5052744;28;20205;-87
2023/12/20 03:09:04;;;;;;;11.68;1.20;;;1.80;99.90;;;;;;5050656;28;20189;-87
2023/12/20 03:11:31;;;;;;;12.07;1.98;;;1.70;99.90;;;;;;5050614;28;20220;-86
2023/12/20 03:13:59;;;;;;;17.15;2.30;;;1.70;99.90;;;;;;5050301;28;20196;-87
2023/12/20 03:16:26;;;;;;;6.90;1.40;;;1.70;99.90;;;;;;5033834;28;20202;-86
2023/12/20 03:18:54;;;;;;;12.60;1.75;;;1.70;99.90;;;;;;5050069;28;20193;-85
2023/12/20 03:21:21;;;;;;;9.57;1.20;;;1.70;99.90;;;;;;5051322;28;20193;-86
2023/12/20 03:23:49;;;;;;;15.02;1.73;;;1.70;99.90;;;;;;5050027;28;20216;-85
2023/12/20 03:26:17;;;;;;;7.45;1.60;;;1.70;99.90;;;;;;5049879;28;20209;-84
2023/12/20 03:28:44;;;;;;;11.30;1.80;;;1.70;99.90;;;;;;5051449;28;20247;-84
2023/12/20 03:31:12;;;;;;;15.30;1.77;;;1.70;99.90;;;;;;5051447;28;20192;-87
2023/12/20 03:33:39;;;;;;;13.10;2.13;;;1.70;99.90;;;;;;5049946;28;20582;-87
2023/12/20 03:36:07;;;;;;;10.52;1.50;;;1.70;99.90;;;;;;5053025;28;20196;-86
2023/12/20 03:38:35;;;;;;;9.18;1.42;;;1.70;99.90;;;;;;5066931;28;20325;-87
2023/12/20 03:41:02;;;;;;;12.98;1.80;;;1.70;99.90;;;;;;5070637;28;20208;-84
2023/12/20 03:43:30;;;;;;;12.38;1.77;;;1.60;99.90;;;;;;5069401;28;20188;-85
2023/12/20 03:45:58;;;;;;;14.90;2.58;;;1.60;99.90;;;;;;5069474;28;20266;-86
2023/12/20 03:48:26;;;;;;;11.98;1.27;;;1.60;99.90;;;;;;5069478;28;20869;-86
2023/12/20 03:50:53;;;;;;;13.18;1.67;;;1.60;99.90;;;;;;5052782;28;20191;-86
2023/12/20 03:53:21;;;;;;;11.35;1.52;;;1.60;99.90;;;;;;5069034;28;20669;-86
2023/12/20 03:55:49;;;;;;;8.27;1.60;;;1.60;99.90;;;;;;5070562;28;20208;-85
2023/12/20 03:58:16;;;;;;;11.80;1.67;;;1.60;99.90;;;;;;5069966;28;20248;-85
2023/12/20 04:00:44;;;;;;;10.40;1.38;;;1.60;99.90;;;;;;5071147;28;20191;-87
2023/12/20 04:03:13;;;;;;;11.13;1.77;;;1.60;99.90;;;;;;5070982;28;20180;-86
2023/12/20 04:05:41;;;;;;;10.52;1.85;;;1.60;99.90;;;;;;5050624;28;20236;-86
2023/12/20 04:08:09;;;;;;;15.38;1.98;;;1.60;99.90;;;;;;5068808;28;20292;-86
2023/12/20 04:10:37;;;;;;;13.77;1.48;;;1.60;99.90;;;;;;5052498;28;20279;-85
2023/12/20 04:13:05;;;;;;;8.43;1.77;;;1.60;99.90;;;;;;5098110;28;20200;-85
2023/12/20 04:15:32;;;;;;;10.88;1.23;;;1.50;99.90;;;;;;5048801;28;20199;-86
2023/12/20 04:18:00;;;;;;;7.75;1.38;;;1.50;99.90;;;;;;5050191;28;20246;-86
2023/12/20 04:20:27;;;;;;;13.10;1.48;;;1.50;99.90;;;;;;5049358;28;20255;-85
2023/12/20 04:22:55;;;;;;;11.45;1.77;;;1.50;99.90;;;;;;5049381;28;20185;-84
2023/12/20 04:25:22;;;;;;;13.48;1.83;;;1.50;99.90;;;;;;5050773;28;20201;-84
2023/12/20 04:27:50;;;;;;;4.28;1.38;;;1.50;99.90;;;;;;5049992;28;20564;-85
2023/12/20 04:30:18;;;;;;;9.52;1.70;;;1.50;99.90;;;;;;5065375;28;20193;-87
2023/12/20 04:32:46;;;;;;;13.00;1.92;;;1.50;99.90;;;;;;5064379;28;20602;-85
2023/12/20 04:35:13;;;;;;;13.60;1.77;;;1.50;99.90;;;;;;5049235;28;20184;-86
2023/12/20 04:37:41;;;;;;;14.70;1.55;;;1.50;99.90;;;;;;5048433;28;20177;-86
2023/12/20 04:40:10;;;;;;;15.45;1.92;;;1.50;99.90;;;;;;5032168;28;20189;-86
2023/12/20 04:42:37;;;;;;;17.13;1.75;;;1.50;99.90;;;;;;5048536;28;20192;-86
2023/12/20 04:45:05;;;;;;;6.45;1.50;;;1.50;99.90;;;;;;5050104;28;20181;-87
2023/12/20 04:47:33;;;;;;;12.85;1.60;;;1.50;99.90;;;;;;5048773;28;20196;-86
2023/12/20 04:50:00;;;;;;;10.15;1.75;;;1.50;99.90;;;;;;5049731;28;20182;-84
2023/12/20 04:52:28;;;;;;;12.07;1.73;;;1.50;99.90;;;;;;5048484;28;20189;-86
2023/12/20 04:54:56;;;;;;;18.25;1.63;;;1.50;99.90;;;;;;5049420;28;20597;-86
2023/12/20 04:57:23;;;;;;;8.93;1.35;;;1.40;99.90;;;;;;5048799;28;20919;-85
2023/12/20 04:59:51;;;;;;;11.93;2.28;;;1.40;99.90;;;;;;5048145;28;20221;-86
2023/12/20 05:02:18;;;;;;;8.98;1.25;;;1.40;99.90;;;;;;5048226;28;20212;-86
2023/12/20 05:04:46;;;;;;;13.13;1.75;;;1.40;99.90;;;;;;5049581;28;20193;-87
2023/12/20 05:07:14;;;;;;;9.48;1.58;;;1.40;99.90;;;;;;5048868;28;20213;-85
2023/12/20 05:09:41;;;;;;;14.45;1.92;;;1.40;99.90;;;;;;5060208;28;20181;-86
2023/12/20 05:12:09;;;;;;;5.40;1.15;;;1.40;99.90;;;;;;5049440;28;20262;-87
2023/12/20 05:14:36;;;;;;;12.52;1.77;;;1.40;99.90;;;;;;5049411;28;20181;-85
2023/12/20 05:17:04;;;;;;;9.40;1.52;;;1.40;99.90;;;;;;5052029;28;20934;-86
2023/12/20 05:19:34;;;;;;;9.02;1.80;;;1.40;99.90;;;;;;5053297;28;20255;-87
2023/12/20 05:22:03;;;;;;;13.73;1.70;;;1.40;99.90;;;;;;5068866;28;20201;-87
2023/12/20 05:24:30;;;;;;;14.65;1.45;;;1.40;99.90;;;;;;5053727;28;20192;-84
2023/12/20 05:26:58;;;;;;;11.73;2.10;;;1.40;99.90;;;;;;5085569;28;20206;-87
2023/12/20 05:29:25;;;;;;;14.27;2.08;;;1.40;99.90;;;;;;5068785;28;20200;-85
2023/12/20 05:31:53;;;;;;;14.85;1.65;;;1.40;99.90;;;;;;5069665;28;20193;-86
2023/12/20 05:34:20;;;;;;;11.00;2.10;;;1.40;99.90;;;;;;5052307;28;20197;-84
2023/12/20 05:36:48;;;;;;;12.73;2.13;;;1.40;99.90;;;;;;5085024;28;20224;-87
2023/12/20 05:39:15;;;;;;;11.80;1.70;;;1.40;99.90;;;;;;5068334;28;20796;-87
2023/12/20 05:41:43;;;;;;;10.95;2.10;;;1.30;99.90;;;;;;5068529;28;20251;-86
2023/12/20 05:44:10;;;;;;;9.88;1.67;;;1.30;99.90;;;;;;5053172;28;20272;-84
2023/12/20 05:46:37;;;;;;;14.05;1.83;;;1.30;99.90;;;;;;5052880;28;20251;-84
2023/12/20 05:49:05;;;;;;;12.27;1.88;;;1.30;99.90;;;;;;5068464;28;20189;-85
2023/12/20 05:51:32;;;;;;;15.75;2.00;;;1.30;99.90;;;;;;5068551;28;20189;-85
2023/12/20 05:54:00;;;;;;;14.77;1.75;;;1.30;99.90;;;;;;5085247;28;20607;-86
2023/12/20 05:56:27;;;;;;;9.45;1.40;;;1.30;99.90;;;;;;5052958;28;20193;-86
2023/12/20 05:58:55;;;;;;;11.00;1.45;;;1.30;99.90;;;;;;5066657;28;20205;-86
2023/12/20 06:01:22;;;;;;;17.23;2.33;;;1.30;99.90;;;;;;5069321;28;20224;-83
2023/12/20 06:03:50;;;;;;;8.00;1.27;;;1.30;99.90;;;;;;5073195;28;20658;-85
2023/12/20 06:06:17;;;;;;;11.73;1.60;;;1.30;99.90;;;;;;5064954;28;20232;-85
2023/12/20 06:08:45;;;;;;;12.73;1.65;;;1.30;99.90;;;;;;5052502;28;20178;-86
2023/12/20 06:11:13;;;;;;;10.98;1.90;;;1.30;99.90;;;;;;5051425;28;20536;-85
2023/12/20 06:13:41;;;;;;;12.65;1.35;;;1.30;99.90;;;;;;5067216;28;20239;-86
2023/12/20 06:16:08;;;;;;;11.70;1.80;;;1.30;99.90;;;;;;5050589;28;20197;-87
2023/12/20 06:18:36;;;;;;;14.07;1.90;;;1.30;99.90;;;;;;5052548;28;20243;-86
2023/12/20 06:21:05;;;;;;;10.18;1.70;;;1.30;99.90;;;;;;5052654;28;20799;-84
2023/12/20 06:23:32;;;;;;;9.80;1.77;;;1.30;99.90;;;;;;5052455;28;20243;-85
2023/12/20 06:26:00;;;;;;;11.20;1.20;;;1.30;99.90;;;;;;5052126;28;20300;-86
2023/12/20 06:28:27;;;;;;;17.08;1.65;;;1.30;99.90;;;;;;5050826;28;20216;-84
2023/12/20 06:30:56;;;;;;;16.00;2.17;;;1.30;99.90;;;;;;5069937;28;20252;-85
2023/12/20 06:33:24;;;;;;;13.18;1.55;;;1.30;99.90;;;;;;5070753;28;20198;-85
2023/12/20 06:35:52;;;;;;;16.70;2.15;;;1.20;99.90;;;;;;5070542;28;20200;-86
2023/12/20 06:38:20;;;;;;;15.45;1.70;;;1.20;99.90;;;;;;5072154;28;20235;-86
2023/12/20 06:40:48;;;;;;;16.73;1.80;;;1.30;99.90;;;;;;5071686;28;20188;-85
2023/12/20 06:43:16;;;;;;;15.18;1.75;;;1.20;99.90;;;;;;5071841;28;20192;-86
2023/12/20 06:46:03;;;;;;;16.33;2.10;;;1.20;99.90;;;;;;5070393;28;20201;-85
2023/12/20 06:48:31;;;;;;;7.22;1.52;;;1.20;99.90;;;;;;5071828;28;20177;-86
2023/12/20 06:51:01;;;;;;;11.77;1.80;;;1.20;99.90;;;;;;5070380;28;20288;-85
2023/12/20 06:53:29;;;;;;;12.70;1.90;;;1.20;99.90;;;;;;5071560;28;20242;-86
2023/12/20 06:55:57;;;;;;;15.90;1.50;;;1.20;99.90;;;;;;5069983;28;20573;-85
2023/12/20 06:58:24;;;;;;;14.07;1.30;;;1.20;99.90;;;;;;5069918;28;20231;-84
2023/12/20 07:00:51;;;;;;;14.23;1.83;;;1.20;99.90;;;;;;5071305;28;20184;-84
2023/12/20 07:03:19;;;;;;;13.80;1.90;;;1.20;99.90;;;;;;5069644;28;20199;-86
2023/12/20 07:05:47;;;;;;;12.77;2.30;;;1.20;99.90;;;;;;5069234;28;20189;-85
2023/12/20 07:08:15;;;;;;;9.45;1.70;;;1.20;99.90;;;;;;5070669;28;20181;-86
2023/12/20 07:10:42;;;;;;;14.27;1.85;;;1.30;99.90;;;;;;5069732;28;20177;-85
2023/12/20 07:13:10;;;;;;;8.32;1.40;;;1.20;99.90;;;;;;5069857;28;20184;-85
2023/12/20 07:15:37;;;;;;;14.82;1.67;;;1.20;99.90;;;;;;5070619;28;20189;-84
2023/12/20 07:18:06;;;;;;;12.10;1.30;;;1.30;99.90;;;;;;5070496;28;20260;-86
2023/12/20 07:20:33;;;;;;;13.77;1.75;;;1.20;99.90;;;;;;5070028;28;20184;-86
2023/12/20 07:23:01;;;;;;;16.88;1.83;;;1.20;99.90;;;;;;5066475;28;20196;-86
2023/12/20 07:25:28;;;;;;;11.38;1.75;;;1.30;99.90;;;;;;5054228;28;20666;-85
2023/12/20 07:27:56;;;;;;;16.33;2.05;;;1.20;99.90;;;;;;5051177;28;20204;-86
2023/12/20 07:30:23;;;;;;;13.52;1.70;;;1.20;99.90;;;;;;5051544;28;20187;-86
2023/12/20 07:32:52;;;;;;;18.33;1.60;;;1.30;99.90;;;;;;5050841;28;20184;-88
2023/12/20 07:35:19;;;;;;;13.68;1.98;;;1.30;99.90;;;;;;5051026;28;20259;-85
2023/12/20 07:37:47;;;;;;;14.57;1.75;;;1.30;99.90;;;;;;5050083;28;20193;-86
2023/12/20 07:40:17;;;;;;;9.82;1.45;;;1.30;99.90;;;;;;5049552;28;20677;-85
2023/12/20 07:42:44;;;;;;;9.57;1.88;;;1.30;99.90;;;;;;5050267;28;20193;-87
2023/12/20 07:45:12;;;;;;;15.55;1.65;;;1.30;99.90;;;;;;5050167;28;20185;-85
2023/12/20 07:47:40;;;;;;;10.20;1.27;;;1.30;99.90;;;;;;5049004;28;20216;-82
2023/12/20 07:50:09;;;;;;;13.93;1.73;;;1.30;99.90;;;;;;5048885;28;20193;-85
2023/12/20 07:52:37;;;;;;;18.75;2.00;;;1.30;99.90;;;;;;5049982;28;20192;-83
2023/12/20 07:55:05;;;;;;;12.82;1.45;;;1.30;99.90;;;;;;5049986;28;20719;-85
2023/12/20 07:57:33;;;;;;;14.70;1.63;;;1.30;99.90;;;;;;5048556;28;20288;-88
2023/12/20 08:00:00;;;;;;;14.55;2.22;;;1.30;99.90;;;;;;5048808;28;20212;-85
2023/12/20 08:02:30;;;;;;;13.20;1.75;;;1.30;99.90;;;;;;5050129;28;20189;-86
2023/12/20 08:04:57;;;;;;;11.05;1.50;;;1.30;99.90;;;;;;5064865;28;20197;-87
2023/12/20 08:07:25;;;;;;;13.73;1.73;;;1.30;99.90;;;;;;5049893;28;20279;-85
2023/12/20 08:09:54;;;;;;;9.88;1.58;;;1.30;99.90;;;;;;5049937;28;20192;-87
2023/12/20 08:12:22;;;;;;;15.55;1.40;;;1.30;99.90;;;;;;5049513;28;20268;-86
2023/12/20 08:14:49;;;;;;;14.23;1.77;;;1.30;99.90;;;;;;5047926;28;20272;-86
2023/12/20 08:17:18;;;;;;;15.95;1.40;;;1.30;99.90;;;;;;5063394;28;20192;-83
2023/12/20 08:19:46;;;;;;;10.23;1.58;;;1.30;99.90;;;;;;5069197;28;20197;-84
2023/12/20 08:22:13;;;;;;;10.05;1.30;;;1.30;99.90;;;;;;5069455;28;20187;-87
2023/12/20 08:24:41;;;;;;;10.02;1.77;;;1.30;99.90;;;;;;5049956;28;20203;-86
2023/12/20 08:27:09;;;;;;;6.70;1.27;;;1.30;99.90;;;;;;5067863;28;20216;-84
2023/12/20 08:29:36;;;;;;;7.30;1.25;;;1.30;99.90;;;;;;5048086;28;20216;-86
2023/12/20 08:32:04;;;;;;;15.85;1.92;;;1.30;99.90;;;;;;5049949;28;20180;-84
2023/12/20 08:34:34;;;;;;;10.77;1.58;;;1.30;99.90;;;;;;5050121;28;20192;-87
2023/12/20 08:37:02;;;;;;;11.15;1.15;;;1.30;99.90;;;;;;5048009;28;20201;-85
2023/12/20 08:39:29;;;;;;;10.80;1.30;;;1.30;99.90;;;;;;5049104;28;20636;-85
2023/12/20 08:41:59;;;;;;;11.00;1.98;;;1.30;99.90;;;;;;5092602;28;20196;-85
2023/12/20 08:44:27;;;;;;;9.63;1.45;;;1.30;99.90;;;;;;5068667;28;20200;-86
2023/12/20 08:46:57;;;;;;;18.10;1.80;;;1.30;99.90;;;;;;5068985;28;20201;-84
2023/12/20 08:49:25;;;;;;;14.13;1.65;;;1.30;99.90;;;;;;5060514;28;20819;-87
2023/12/20 08:51:53;;;;;;;8.02;1.00;;;1.30;99.90;;;;;;5061224;28;20184;-85
2023/12/20 08:54:20;;;;;;;13.02;1.80;;;1.30;99.90;;;;;;5050954;28;20647;-84
2023/12/20 08:56:47;;;;;;;13.50;1.77;;;1.20;99.90;;;;;;5065789;28;20200;-84
2023/12/20 08:59:15;;;;;;;17.75;1.88;;;1.20;99.90;;;;;;5055791;28;20189;-85
2023/12/20 09:01:42;;;;;;;9.65;1.88;;;1.20;99.90;;;;;;5055671;28;20205;-85
2023/12/20 09:04:10;;;;;;;12.05;1.65;;;1.20;99.90;;;;;;5047079;28;20908;-85
2023/12/20 09:06:37;;;;;;;10.00;1.65;;;1.30;99.90;;;;;;5051869;28;20250;-84
2023/12/20 09:09:06;;;;;;;10.10;1.55;;;1.30;99.90;;;;;;5054118;28;20189;-85
2023/12/20 09:11:33;;;;;;;14.38;1.73;;;1.20;99.90;;;;;;5048586;28;20181;-86
2023/12/20 09:14:00;;;;;;;8.98;1.70;;;1.20;99.90;;;;;;5048589;28;20185;-85
2023/12/20 09:16:28;;;;;;;13.85;1.73;;;1.20;99.90;;;;;;5048866;28;20184;-86
2023/12/20 09:18:56;;;;;;;11.90;2.00;;;1.20;99.90;;;;;;5049032;28;20667;-86
2023/12/20 09:21:23;;;;;;;9.27;1.55;;;1.20;99.90;;;;;;5057675;28;20602;-85
2023/12/20 09:23:51;;;;;;;10.57;1.35;;;1.20;99.90;;;;;;5062470;28;20188;-85
2023/12/20 09:26:18;;;;;;;6.35;1.35;;;1.20;99.90;;;;;;5069238;28;20263;-87
2023/12/20 09:28:46;;;;;;;6.13;1.60;;;1.20;99.90;;;;;;5051981;28;20189;-86
2023/12/20 09:31:14;;;;;;;16.45;1.83;;;1.10;99.90;;;;;;5053401;28;20643;-86
2023/12/20 09:33:41;;;;;;;16.13;2.15;;;1.20;99.90;;;;;;5063071;28;20726;-84
2023/12/20 09:36:09;;;;;;;11.23;1.60;;;1.20;99.90;;;;;;5047976;28;20208;-86
2023/12/20 09:38:37;;;;;;;9.18;1.40;;;1.20;99.90;;;;;;5048372;28;20228;-85
2023/12/20 09:41:05;;;;;;;20.38;1.83;;;1.20;99.90;;;;;;5048948;28;20280;-85
2023/12/20 09:43:37;;;;;;;14.00;1.20;;;1.20;99.90;;;;;;5066981;28;20248;-85
2023/12/20 09:46:10;;;;;;;12.82;1.85;;;1.20;99.90;;;;;;5068698;28;20181;-86
2023/12/20 09:48:38;;;;;;;13.35;1.92;;;1.20;99.90;;;;;;5068523;28;20215;-85
2023/12/20 09:51:06;;;;;;;12.00;2.00;;;1.20;99.90;;;;;;5064739;28;20189;-84
2023/12/20 09:53:36;;;;;;;12.48;2.20;;;1.20;99.90;;;;;;5059527;28;20259;-86
2023/12/20 09:56:08;;;;;;;12.00;2.13;;;1.20;99.90;;;;;;5066957;28;20203;-85
2023/12/20 09:58:40;;;;;;;10.73;1.75;;;1.20;99.90;;;;;;5067240;28;20200;-85
2023/12/20 10:01:10;;;;;;;17.40;2.25;;;1.10;99.90;;;;;;5067321;28;20279;-85
2023/12/20 10:03:40;;;;;;;6.43;1.20;;;1.10;99.90;;;;;;5052391;28;20562;-86
2023/12/20 10:06:09;;;;;;;15.50;2.47;;;1.10;99.90;;;;;;5072160;28;20189;-85
2023/12/20 10:08:36;;;;;;;16.50;1.90;;;1.10;99.90;;;;;;5066623;28;20232;-85
2023/12/20 10:11:05;;;;;;;13.13;2.00;;;1.10;99.90;;;;;;5057508;28;20189;-85
2023/12/20 10:13:33;;;;;;;13.57;2.03;;;1.10;99.90;;;;;;5056176;28;20197;-84
2023/12/20 10:16:02;;;;;;;8.65;1.73;;;1.10;99.90;;;;;;5051576;28;20185;-86
2023/12/20 10:18:31;;;;;;;15.18;1.45;;;1.10;99.90;;;;;;5065309;28;20372;-85
2023/12/20 10:21:09;;;;;;;14.43;1.73;;;1.20;99.90;;;;;;5057171;28;20185;-84
2023/12/20 10:23:39;;;;;;;12.10;1.75;;;1.20;99.90;;;;;;5058718;28;20181;-84
2023/12/20 10:26:07;;;;;;;16.15;1.95;;;1.20;99.90;;;;;;5059828;28;20189;-86
2023/12/20 10:28:35;;;;;;;10.73;1.70;;;1.30;99.90;;;;;;5071489;28;20208;-85
2023/12/20 10:31:03;;;;;;;9.75;1.67;;;1.30;99.90;;;;;;5071445;28;20176;-86
2023/12/20 10:33:35;;;;;;;17.33;1.98;;;1.30;99.90;;;;;;5071830;28;20185;-86
2023/12/20 10:36:02;;;;;;;9.00;1.65;;;1.40;99.90;;;;;;5071814;28;20172;-84
2023/12/20 10:38:30;;;;;;;18.10;2.00;;;1.40;99.90;;;;;;5071628;28;20270;-85
2023/12/20 10:41:02;;;;;;;16.05;1.92;;;1.40;99.90;;;;;;5071070;28;20189;-85
2023/12/20 10:43:31;;;;;;;12.30;1.52;;;1.40;99.90;;;;;;5071381;28;20176;-84
2023/12/20 10:46:00;;;;;;;15.82;1.88;;;1.40;99.90;;;;;;5071083;28;20185;-84
2023/12/20 10:48:35;;;;;;;7.15;1.77;;;1.50;99.90;;;;;;5071226;28;20200;-85
2023/12/20 10:51:05;;;;;;;10.13;1.80;;;1.50;99.90;;;;;;5070055;28;20195;-84
2023/12/20 10:53:36;;;;;;;16.88;2.15;;;1.50;99.90;;;;;;5071129;28;20259;-86
2023/12/20 10:56:05;;;;;;;13.43;2.45;;;1.50;99.90;;;;;;5070853;28;20798;-82
2023/12/20 10:58:35;;;;;;;12.52;2.33;;;1.50;99.90;;;;;;5071056;28;20184;-84
2023/12/20 11:01:05;;;;;;;16.42;2.40;;;1.50;99.90;;;;;;5062316;28;20216;-82
2023/12/20 11:03:39;;;;;;;14.18;2.15;;;1.50;99.90;;;;;;5049750;28;20238;-86
2023/12/20 11:06:20;;;;;;;15.18;2.08;;;1.60;99.90;;;;;;5050674;28;20173;-83
2023/12/20 11:08:51;;;;;;;13.85;2.10;;;1.60;99.90;;;;;;5050880;28;20276;-86
2023/12/20 11:11:36;;;;;;;11.80;1.90;;;1.50;99.90;;;;;;5050691;28;20189;-85
2023/12/20 11:14:08;;;;;;;9.02;1.90;;;1.50;99.90;;;;;;5090408;28;20201;-87
2023/12/20 11:16:40;;;;;;;14.23;1.83;;;1.50;99.90;;;;;;5069465;28;20181;-84
2023/12/20 11:19:20;;;;;;;10.90;2.03;;;1.50;99.90;;;;;;5050610;28;20166;-84
2023/12/20 11:21:48;;;;;;;9.93;1.95;;;1.50;99.90;;;;;;5058377;28;20702;-83
2023/12/20 11:24:16;;;;;;;10.70;1.73;;;1.50;99.90;;;;;;5064752;28;20200;-85
2023/12/20 11:26:51;;;;;;;6.78;1.40;;;1.50;99.90;;;;;;5055712;28;20189;-86
2023/12/20 11:29:34;;;;;;;9.95;2.33;;;1.50;99.90;;;;;;5057566;28;20196;-82
2023/12/20 11:32:24;;;;;;;9.05;1.90;;;1.50;99.90;;;;;;5056698;28;20189;-84
2023/12/20 11:34:54;;;;;;;12.52;1.48;;;1.50;99.90;;;;;;5057482;28;20203;-85
2023/12/20 11:37:28;;;;;;;10.82;2.35;;;1.50;99.90;;;;;;5056974;28;20195;-84
2023/12/20 11:39:56;;;;;;;10.45;1.67;;;1.50;99.90;;;;;;5068830;28;20232;-85
2023/12/20 11:42:24;;;;;;;9.57;1.73;;;1.50;99.90;;;;;;5070188;28;20184;-87
2023/12/20 11:44:51;;;;;;;12.38;1.95;;;1.50;99.90;;;;;;5055516;28;20225;-85
2023/12/20 11:47:20;;;;;;;16.25;2.10;;;1.50;99.90;;;;;;5058127;28;20215;-86
2023/12/20 11:49:48;;;;;;;11.77;2.30;;;1.50;99.90;;;;;;5050048;28;20209;-86
2023/12/20 11:52:17;;;;;;;17.08;2.28;;;1.50;99.90;;;;;;5058707;28;20190;-86
2023/12/20 11:54:45;;;;;;;16.05;2.50;;;1.50;99.90;;;;;;5053140;28;20193;-85
2023/12/20 11:57:13;;;;;;;13.23;1.83;;;1.50;99.90;;;;;;5056236;28;20188;-86
2023/12/20 11:59:42;;;;;;;14.02;2.00;;;1.50;99.90;;;;;;5056889;28;20251;-83
2023/12/20 12:02:13;;;;;;;14.02;1.60;;;1.50;99.90;;;;;;5053321;28;20192;-86
2023/12/20 12:04:42;;;;;;;15.60;2.05;;;1.50;99.90;;;;;;5064876;28;20199;-85
2023/12/20 12:07:10;;;;;;;14.40;1.75;;;1.50;99.90;;;;;;5048543;28;20284;-85
2023/12/20 12:09:37;;;;;;;12.55;1.80;;;1.50;99.90;;;;;;5048566;28;20189;-85
2023/12/20 12:12:06;;;;;;;8.88;1.67;;;1.50;99.90;;;;;;5065690;28;20669;-85
2023/12/20 12:14:37;;;;;;;10.05;1.70;;;1.50;99.90;;;;;;5064915;28;20203;-86
2023/12/20 12:17:05;;;;;;;11.43;1.80;;;1.50;99.90;;;;;;5070003;28;20183;-85
2023/12/20 12:19:35;;;;;;;14.10;2.20;;;1.40;99.90;;;;;;5069876;28;20828;-86
2023/12/20 12:22:10;;;;;;;7.88;1.50;;;1.50;99.90;;;;;;5068598;28;20172;-85
2023/12/20 12:24:41;;;;;;;11.20;1.63;;;1.50;99.90;;;;;;5060411;28;20219;-85
2023/12/20 12:27:08;;;;;;;11.55;1.75;;;1.40;99.90;;;;;;5050503;28;20205;-85
2023/12/20 12:29:37;;;;;;;12.57;2.00;;;1.40;99.90;;;;;;5049514;28;20186;-83
2023/12/20 12:32:06;;;;;;;11.02;2.72;;;1.40;99.90;;;;;;5047974;28;20178;-86
2023/12/20 12:34:37;;;;;;;14.20;2.42;;;1.40;99.90;;;;;;5049441;28;20204;-85
2023/12/20 12:37:07;;;;;;;14.70;3.85;;;1.30;99.90;;;;;;5049564;28;20199;-84
2023/12/20 12:39:34;;;;;;;8.88;3.75;;;1.30;99.90;;;;;;5049383;28;20694;-85
2023/12/20 12:42:02;;;;;;;13.10;3.40;;;1.40;99.90;;;;;;5064957;28;20284;-85
2023/12/20 12:44:30;;;;;;;12.02;4.07;;;1.40;99.90;;;;;;5048483;28;20586;-85
2023/12/20 12:46:58;;;;;;;13.90;3.70;;;1.40;99.90;;;;;;5055737;28;20203;-85
2023/12/20 12:49:28;;;;;;;10.45;2.80;;;1.30;99.90;;;;;;5050334;28;20216;-85
2023/12/20 12:51:58;;;;;;;10.25;2.92;;;1.40;99.90;;;;;;5048113;28;20185;-85
2023/12/20 12:54:29;;;;;;;11.90;2.92;;;1.40;99.90;;;;;;5048529;28;20711;-85